createdAt,value
2024-01-20T00:02:36.080Z,0
2024-01-20T00:07:42.484Z,0
2024-01-20T00:12:48.903Z,0
2024-01-20T00:17:55.540Z,0
2024-01-20T00:23:01.993Z,0
2024-01-20T00:28:08.152Z,0
2024-01-20T00:33:14.623Z,0
2024-01-20T00:38:21.164Z,0
2024-01-20T00:43:27.709Z,0
2024-01-20T00:48:34.147Z,0
2024-01-20T00:53:40.526Z,0
2024-01-20T00:58:46.973Z,0
2024-01-20T01:03:53.357Z,0
2024-01-20T01:08:59.803Z,0
2024-01-20T01:14:06.181Z,0
2024-01-20T01:19:12.569Z,0
2024-01-20T01:24:18.702Z,0
2024-01-20T01:29:25.237Z,0
2024-01-20T01:34:30.892Z,0
2024-01-20T01:39:36.830Z,0
2024-01-20T01:44:41.966Z,0
2024-01-20T01:49:48.553Z,0
2024-01-20T01:54:55.064Z,0
2024-01-20T02:00:01.350Z,0
2024-01-20T02:05:07.717Z,0
2024-01-20T02:10:14.262Z,0
2024-01-20T02:15:20.615Z,0
2024-01-20T02:20:26.794Z,0
2024-01-20T02:25:33.564Z,0
2024-01-20T02:30:39.657Z,0
2024-01-20T02:35:46.260Z,0
2024-01-20T02:40:52.622Z,0
2024-01-20T02:45:59.110Z,0
2024-01-20T02:51:05.410Z,0
2024-01-20T02:56:12.003Z,0
2024-01-20T03:01:18.108Z,0
2024-01-20T03:06:24.507Z,0
2024-01-20T03:11:31.298Z,0
2024-01-20T03:16:37.717Z,0
2024-01-20T03:21:44.071Z,0
2024-01-20T03:26:50.625Z,0
2024-01-20T03:31:56.746Z,0
2024-01-20T03:37:03.299Z,0
2024-01-20T03:42:09.793Z,0
2024-01-20T03:47:15.845Z,0
2024-01-20T03:52:22.714Z,0
2024-01-20T03:57:27.990Z,0
2024-01-20T04:02:34.663Z,0
2024-01-20T04:07:40.088Z,0
2024-01-20T04:12:46.640Z,0
2024-01-20T04:17:53.003Z,0
2024-01-20T04:22:59.421Z,0
2024-01-20T04:28:05.582Z,0
2024-01-20T04:33:12.375Z,0
2024-01-20T04:38:18.668Z,0
2024-01-20T04:43:25.083Z,0
2024-01-20T04:48:31.561Z,0
2024-01-20T04:53:38.057Z,0
2024-01-20T04:58:44.342Z,0
2024-01-20T05:03:50.799Z,0
2024-01-20T05:08:57.222Z,0
2024-01-20T05:14:03.299Z,0
2024-01-20T05:19:09.889Z,0
2024-01-20T05:24:16.481Z,0
2024-01-20T05:29:22.556Z,0
2024-01-20T05:34:29.218Z,0
2024-01-20T05:39:35.635Z,0
2024-01-20T05:44:42.025Z,0
2024-01-20T05:49:48.383Z,0
2024-01-20T05:54:54.787Z,0
2024-01-20T06:00:01.388Z,0
2024-01-20T06:05:07.452Z,0
2024-01-20T06:10:14.168Z,0
2024-01-20T06:15:20.841Z,0
2024-01-20T06:20:25.995Z,0
2024-01-20T06:25:32.538Z,0
2024-01-20T06:30:38.204Z,0
2024-01-20T06:35:44.628Z,0
2024-01-20T06:40:50.735Z,1
2024-01-20T06:45:57.328Z,0
2024-01-20T06:51:03.691Z,2
2024-01-20T06:56:09.830Z,1
2024-01-20T07:01:16.270Z,2
2024-01-20T07:06:22.675Z,13
2024-01-20T07:11:28.916Z,23
2024-01-20T07:16:35.255Z,30
2024-01-20T07:21:41.503Z,64
2024-01-20T07:26:47.817Z,77
2024-01-20T07:31:54.054Z,104
2024-01-20T07:37:00.167Z,136
2024-01-20T07:42:06.706Z,163
2024-01-20T07:47:13.075Z,195
2024-01-20T07:52:19.380Z,179
2024-01-20T07:57:25.397Z,186
2024-01-20T08:02:32.104Z,190
2024-01-20T08:07:38.318Z,208
2024-01-20T08:12:44.622Z,214
2024-01-20T08:17:50.953Z,242
2024-01-20T08:22:57.057Z,237
2024-01-20T08:28:03.560Z,553
2024-01-20T08:33:09.651Z,484
2024-01-20T08:38:16.031Z,901
2024-01-20T08:43:22.540Z,867
2024-01-20T08:48:28.733Z,829
2024-01-20T08:53:35.189Z,1023
2024-01-20T08:58:41.388Z,991
2024-01-20T09:03:47.793Z,725
2024-01-20T09:08:53.762Z,1109
2024-01-20T09:14:00.069Z,1131
2024-01-20T09:19:06.366Z,1371
2024-01-20T09:24:12.817Z,1205
2024-01-20T09:29:19.188Z,1236
2024-01-20T09:34:25.396Z,1385
2024-01-20T09:39:31.774Z,1796
2024-01-20T09:44:38.017Z,1069
2024-01-20T09:49:43.594Z,1752
2024-01-20T09:54:49.932Z,1564
2024-01-20T09:59:56.331Z,1723
2024-01-20T10:05:02.632Z,1603
2024-01-20T10:10:08.635Z,1865
2024-01-20T10:15:14.948Z,2049
2024-01-20T10:20:21.584Z,1698
2024-01-20T10:25:27.786Z,2639
2024-01-20T10:30:34.036Z,2319
2024-01-20T10:35:40.642Z,2029
2024-01-20T10:40:46.762Z,1469
2024-01-20T10:45:52.806Z,2347
2024-01-20T10:50:59.183Z,2337
2024-01-20T10:56:05.642Z,2475
2024-01-20T11:01:11.727Z,2539
2024-01-20T11:06:18.204Z,2001
2024-01-20T11:11:24.347Z,1937
2024-01-20T11:16:31.006Z,1862
2024-01-20T11:21:37.082Z,1773
2024-01-20T11:26:43.562Z,1857
2024-01-20T11:31:49.738Z,1931
2024-01-20T11:36:56.106Z,1880
2024-01-20T11:42:02.203Z,1784
2024-01-20T11:47:08.638Z,1508
2024-01-20T11:52:14.952Z,2379
2024-01-20T11:57:21.332Z,2320
2024-01-20T12:02:26.918Z,2151
2024-01-20T12:07:32.368Z,2041
2024-01-20T12:12:38.506Z,2226
2024-01-20T12:17:44.924Z,2285
2024-01-20T12:22:51.121Z,2376
2024-01-20T12:27:57.458Z,2372
2024-01-20T12:33:03.788Z,2309
2024-01-20T12:38:10.225Z,2298
2024-01-20T12:43:16.559Z,2354
2024-01-20T12:48:22.933Z,2292
2024-01-20T12:53:29.129Z,2245
2024-01-20T12:58:35.359Z,2148
2024-01-20T13:03:41.659Z,1866
2024-01-20T13:08:47.871Z,1616
2024-01-20T13:13:54.465Z,1564
2024-01-20T13:19:00.705Z,1471
2024-01-20T13:24:07.028Z,1434
2024-01-20T13:29:13.308Z,1797
2024-01-20T13:34:19.598Z,1848
2024-01-20T13:39:25.706Z,1771
2024-01-20T13:44:32.275Z,1592
2024-01-20T13:49:38.407Z,1351
2024-01-20T13:54:44.976Z,1102
2024-01-20T13:59:50.933Z,857
2024-01-20T14:04:57.236Z,723
2024-01-20T14:10:03.650Z,692
2024-01-20T14:15:10.027Z,688
2024-01-20T14:20:15.737Z,686
2024-01-20T14:25:20.938Z,708
2024-01-20T14:30:27.310Z,732
2024-01-20T14:35:33.729Z,718
2024-01-20T14:40:39.982Z,701
2024-01-20T14:45:46.337Z,690
2024-01-20T14:50:52.461Z,713
2024-01-20T14:55:58.998Z,754
2024-01-20T15:01:05.095Z,710
2024-01-20T15:06:11.479Z,654
2024-01-20T15:11:17.916Z,633
2024-01-20T15:16:24.232Z,453
2024-01-20T15:21:30.319Z,321
2024-01-20T15:26:36.922Z,255
2024-01-20T15:31:43.044Z,202
2024-01-20T15:36:49.225Z,155
2024-01-20T15:41:55.665Z,108
2024-01-20T15:47:01.920Z,73
2024-01-20T15:52:08.161Z,49
2024-01-20T15:57:14.529Z,34
2024-01-20T16:02:20.926Z,20
2024-01-20T16:07:27.053Z,12
2024-01-20T16:12:33.435Z,7
2024-01-20T16:17:39.669Z,2
2024-01-20T16:22:46.178Z,0
2024-01-20T16:27:52.442Z,0
2024-01-20T16:32:58.987Z,0
2024-01-20T16:38:04.462Z,0
2024-01-20T16:43:10.883Z,0
2024-01-20T16:48:17.300Z,0
2024-01-20T16:53:23.705Z,0
2024-01-20T16:58:30.137Z,0
2024-01-20T17:03:36.547Z,0
2024-01-20T17:08:42.964Z,0
2024-01-20T17:13:49.378Z,0
2024-01-20T17:18:55.846Z,0
2024-01-20T17:24:02.432Z,0
2024-01-20T17:29:08.621Z,0
2024-01-20T17:34:15.040Z,0
2024-01-20T17:39:21.482Z,0
2024-01-20T17:44:27.850Z,0
2024-01-20T17:49:34.409Z,0
2024-01-20T17:54:40.677Z,0
2024-01-20T17:59:47.100Z,0
2024-01-20T18:04:53.545Z,0
2024-01-20T18:10:00.100Z,0
2024-01-20T18:15:06.341Z,0
2024-01-20T18:20:12.746Z,0
2024-01-20T18:25:19.168Z,0
2024-01-20T18:30:25.579Z,0
2024-01-20T18:35:31.984Z,0
2024-01-20T18:40:38.400Z,0
2024-01-20T18:45:44.941Z,0
2024-01-20T18:50:50.588Z,0
2024-01-20T18:55:56.997Z,0
2024-01-20T19:01:03.471Z,0
2024-01-20T19:06:09.957Z,0
2024-01-20T19:11:15.409Z,0
2024-01-20T19:16:21.876Z,0
2024-01-20T19:21:28.269Z,0
2024-01-20T19:26:34.649Z,0
2024-01-20T19:31:41.072Z,0
2024-01-20T19:36:47.522Z,0
2024-01-20T19:41:54.054Z,0
2024-01-20T19:47:00.626Z,0
2024-01-20T19:52:07.050Z,0
2024-01-20T19:57:13.155Z,0
2024-01-20T20:02:19.564Z,0
2024-01-20T20:07:26.125Z,0
2024-01-20T20:12:32.684Z,0
2024-01-20T20:17:39.064Z,0
2024-01-20T20:22:45.524Z,0
2024-01-20T20:27:51.630Z,0
2024-01-20T20:32:58.045Z,0
2024-01-20T20:38:04.456Z,0
2024-01-20T20:43:10.877Z,0
2024-01-20T20:48:17.514Z,0
2024-01-20T20:53:23.703Z,0
2024-01-20T20:58:30.349Z,0
2024-01-20T21:03:36.663Z,0
2024-01-20T21:08:43.262Z,0
2024-01-20T21:13:49.682Z,0
2024-01-20T21:18:56.237Z,0
2024-01-20T21:24:01.618Z,0
2024-01-20T21:29:07.856Z,0
2024-01-20T21:34:14.531Z,0
2024-01-20T21:39:20.769Z,0
2024-01-20T21:44:27.430Z,0
2024-01-20T21:49:33.492Z,0
2024-01-20T21:54:40.172Z,0
2024-01-20T21:59:46.627Z,0
2024-01-20T22:04:52.976Z,0
2024-01-20T22:09:59.296Z,0
2024-01-20T22:15:05.791Z,0
2024-01-20T22:20:12.087Z,0
2024-01-20T22:25:18.647Z,0
2024-01-20T22:30:24.772Z,0
2024-01-20T22:35:31.169Z,0
2024-01-20T22:40:37.830Z,0
2024-01-20T22:45:44.117Z,0
2024-01-20T22:50:50.715Z,0
2024-01-20T22:55:56.824Z,0
2024-01-20T23:01:03.531Z,0
2024-01-20T23:06:09.653Z,0
2024-01-20T23:11:16.391Z,0
2024-01-20T23:16:22.644Z,0
2024-01-20T23:21:29.164Z,0
2024-01-20T23:26:35.591Z,0
2024-01-20T23:31:42.200Z,0
2024-01-20T23:36:47.820Z,0
2024-01-20T23:41:53.071Z,0
2024-01-20T23:46:59.330Z,0
2024-01-20T23:52:06.139Z,0
2024-01-20T23:57:12.217Z,0
